createdAt,value
2022-12-24T00:00:49.677Z,10.72
2022-12-24T00:01:49.554Z,10.69
2022-12-24T00:02:49.618Z,10.68
2022-12-24T00:03:49.590Z,10.75
2022-12-24T00:04:49.565Z,10.86
2022-12-24T00:05:49.484Z,10.83
2022-12-24T00:06:49.499Z,10.79
2022-12-24T00:07:49.511Z,10.67
2022-12-24T00:08:49.455Z,10.55
2022-12-24T00:09:49.478Z,10.39
2022-12-24T00:10:49.473Z,10.53
2022-12-24T00:11:49.445Z,10.48
2022-12-24T00:12:49.417Z,10.46
2022-12-24T00:13:49.423Z,10.45
2022-12-24T00:14:49.375Z,10.42
2022-12-24T00:15:49.413Z,10.28
2022-12-24T00:16:49.491Z,10.33
2022-12-24T00:17:49.383Z,10.41
2022-12-24T00:18:49.341Z,10.49
2022-12-24T00:19:49.338Z,10.39
2022-12-24T00:20:49.344Z,10.39
2022-12-24T00:21:49.297Z,10.33
2022-12-24T00:22:49.340Z,10.33
2022-12-24T00:23:49.314Z,10.49
2022-12-24T00:24:49.263Z,10.48
2022-12-24T00:25:49.281Z,10.45
2022-12-24T00:26:49.285Z,10.55
2022-12-24T00:27:49.254Z,10.48
2022-12-24T00:28:49.239Z,10.38
2022-12-24T00:29:49.217Z,10.48
2022-12-24T00:30:49.268Z,10.51
2022-12-24T00:31:49.206Z,10.48
2022-12-24T00:32:49.173Z,10.34
2022-12-24T00:33:49.184Z,10.33
2022-12-24T00:34:49.197Z,10.28
2022-12-24T00:35:49.152Z,10.24
2022-12-24T00:36:49.117Z,10.25
2022-12-24T00:37:49.140Z,10.34
2022-12-24T00:38:49.144Z,10.21
2022-12-24T00:39:49.102Z,10.39
2022-12-24T00:40:49.126Z,10.33
2022-12-24T00:41:49.144Z,10.36
2022-12-24T00:42:49.055Z,10.38
2022-12-24T00:43:49.108Z,10.38
2022-12-24T00:44:49.089Z,10.46
2022-12-24T00:45:49.109Z,10.34
2022-12-24T00:46:49.045Z,10.33
2022-12-24T00:47:49.021Z,10.30
2022-12-24T00:48:49.042Z,10.36
2022-12-24T00:49:48.992Z,10.25
2022-12-24T00:50:49.035Z,10.30
2022-12-24T00:51:49.001Z,10.36
2022-12-24T00:52:48.950Z,10.25
2022-12-24T00:53:48.969Z,10.30
2022-12-24T00:54:48.927Z,10.36
2022-12-24T00:55:48.920Z,10.24
2022-12-24T00:56:48.938Z,10.31
2022-12-24T00:57:48.907Z,10.28
2022-12-24T00:58:48.905Z,10.24
2022-12-24T00:59:48.874Z,10.13
2022-12-24T01:00:48.875Z,10.20
2022-12-24T01:01:48.997Z,10.15
2022-12-24T01:02:49.016Z,10.20
2022-12-24T01:03:49.009Z,10.25
2022-12-24T01:04:48.859Z,10.05
2022-12-24T01:05:48.803Z,10.05
2022-12-24T01:06:48.784Z,10.15
2022-12-24T01:07:48.786Z,10.09
2022-12-24T01:08:48.779Z,10.15
2022-12-24T01:09:48.751Z,10.15
2022-12-24T01:10:48.762Z,10.18
2022-12-24T01:11:48.748Z,10.31
2022-12-24T01:12:48.715Z,10.42
2022-12-24T01:13:48.732Z,10.33
2022-12-24T01:14:48.717Z,10.49
2022-12-24T01:15:48.740Z,10.48
2022-12-24T01:16:48.677Z,10.34
2022-12-24T01:17:48.687Z,10.33
2022-12-24T01:18:48.656Z,10.20
2022-12-24T01:19:48.657Z,10.18
2022-12-24T01:20:48.666Z,10.25
2022-12-24T01:21:48.622Z,10.20
2022-12-24T01:22:48.597Z,10.24
2022-12-24T01:23:48.602Z,10.21
2022-12-24T01:24:48.593Z,10.13
2022-12-24T01:25:48.584Z,10.23
2022-12-24T01:26:48.574Z,10.18
2022-12-24T01:27:48.561Z,10.12
2022-12-24T01:28:48.530Z,10.15
2022-12-24T01:29:48.527Z,10.05
2022-12-24T01:30:48.607Z,10.12
2022-12-24T01:31:48.521Z,9.95
2022-12-24T01:32:48.487Z,10.03
2022-12-24T01:33:48.494Z,10.00
2022-12-24T01:34:48.529Z,10.05
2022-12-24T01:35:48.481Z,10.02
2022-12-24T01:36:48.446Z,10.05
2022-12-24T01:37:48.441Z,10.06
2022-12-24T01:38:48.462Z,10.18
2022-12-24T01:39:48.432Z,10.25
2022-12-24T01:40:48.428Z,10.15
2022-12-24T01:41:48.414Z,10.24
2022-12-24T01:42:48.377Z,10.23
2022-12-24T01:43:48.389Z,10.23
2022-12-24T01:44:48.400Z,10.33
2022-12-24T01:45:48.383Z,10.30
2022-12-24T01:46:48.394Z,10.20
2022-12-24T01:47:48.342Z,10.21
2022-12-24T01:48:48.371Z,10.25
2022-12-24T01:49:48.318Z,10.30
2022-12-24T01:50:48.329Z,10.23
2022-12-24T01:51:48.295Z,10.33
2022-12-24T01:52:48.276Z,10.20
2022-12-24T01:53:48.333Z,10.21
2022-12-24T01:54:48.273Z,10.17
2022-12-24T01:55:48.276Z,10.41
2022-12-24T01:56:48.218Z,10.17
2022-12-24T01:57:48.248Z,10.18
2022-12-24T01:58:48.202Z,10.21
2022-12-24T01:59:48.216Z,10.18
2022-12-24T02:00:48.222Z,10.24
2022-12-24T02:01:48.257Z,10.15
2022-12-24T02:02:48.285Z,10.10
2022-12-24T02:03:48.177Z,10.05
2022-12-24T02:04:48.171Z,10.10
2022-12-24T02:05:48.159Z,10.06
2022-12-24T02:06:48.155Z,10.10
2022-12-24T02:07:48.121Z,10.07
2022-12-24T02:08:48.095Z,10.10
2022-12-24T02:09:48.089Z,10.15
2022-12-24T02:10:48.107Z,10.15
2022-12-24T02:11:48.068Z,10.12
2022-12-24T02:12:48.042Z,10.15
2022-12-24T02:13:48.070Z,10.25
2022-12-24T02:14:48.017Z,10.10
2022-12-24T02:15:48.090Z,10.07
2022-12-24T02:16:48.034Z,10.12
2022-12-24T02:17:48.032Z,9.99
2022-12-24T02:18:47.994Z,9.99
2022-12-24T02:19:47.981Z,10.00
2022-12-24T02:20:47.978Z,9.97
2022-12-24T02:21:47.953Z,9.99
2022-12-24T02:22:47.983Z,9.99
2022-12-24T02:23:47.951Z,10.02
2022-12-24T02:24:47.917Z,10.03
2022-12-24T02:25:47.930Z,10.15
2022-12-24T02:26:47.921Z,10.20
2022-12-24T02:27:47.893Z,10.31
2022-12-24T02:28:47.865Z,10.31
2022-12-24T02:29:47.908Z,10.15
2022-12-24T02:30:47.856Z,10.09
2022-12-24T02:31:47.896Z,10.12
2022-12-24T02:32:47.857Z,10.03
2022-12-24T02:33:47.820Z,10.17
2022-12-24T02:34:47.781Z,10.17
2022-12-24T02:35:47.821Z,10.07
2022-12-24T02:36:47.804Z,10.05
2022-12-24T02:37:47.786Z,10.10
2022-12-24T02:38:47.732Z,10.06
2022-12-24T02:39:47.744Z,10.21
2022-12-24T02:40:47.755Z,10.07
2022-12-24T02:41:47.725Z,10.06
2022-12-24T02:42:47.721Z,10.03
2022-12-24T02:43:47.692Z,9.95
2022-12-24T02:44:47.713Z,9.90
2022-12-24T02:45:47.673Z,9.91
2022-12-24T02:46:47.728Z,9.92
2022-12-24T02:47:47.668Z,9.85
2022-12-24T02:48:47.650Z,9.64
2022-12-24T02:49:47.630Z,9.63
2022-12-24T02:50:47.632Z,9.56
2022-12-24T02:51:47.619Z,9.55
2022-12-24T02:52:47.683Z,9.56
2022-12-24T02:53:47.606Z,9.51
2022-12-24T02:54:47.569Z,9.36
2022-12-24T02:55:47.570Z,9.36
2022-12-24T02:56:47.592Z,9.62
2022-12-24T02:57:47.544Z,9.55
2022-12-24T02:58:47.521Z,9.52
2022-12-24T02:59:47.510Z,9.54
2022-12-24T03:00:47.591Z,9.49
2022-12-24T03:01:47.626Z,9.47
2022-12-24T03:02:47.527Z,9.51
2022-12-24T03:03:47.482Z,9.59
2022-12-24T03:04:47.450Z,9.48
2022-12-24T03:05:47.445Z,9.51
2022-12-24T03:06:47.465Z,9.52
2022-12-24T03:07:47.456Z,9.49
2022-12-24T03:08:47.400Z,9.51
2022-12-24T03:09:47.415Z,9.47
2022-12-24T03:10:47.422Z,9.47
2022-12-24T03:11:47.399Z,9.49
2022-12-24T03:12:47.353Z,9.47
2022-12-24T03:13:47.366Z,9.51
2022-12-24T03:14:47.376Z,9.52
2022-12-24T03:15:47.347Z,9.56
2022-12-24T03:16:47.377Z,9.51
2022-12-24T03:17:47.337Z,9.64
2022-12-24T03:18:47.314Z,9.62
2022-12-24T03:19:47.289Z,9.54
2022-12-24T03:20:47.306Z,9.45
2022-12-24T03:21:47.270Z,9.56
2022-12-24T03:22:47.237Z,9.49
2022-12-24T03:23:47.254Z,9.51
2022-12-24T03:24:47.255Z,9.63
2022-12-24T03:25:47.204Z,9.62
2022-12-24T03:26:47.260Z,9.64
2022-12-24T03:27:47.209Z,9.64
2022-12-24T03:28:47.176Z,9.67
2022-12-24T03:29:47.190Z,9.70
2022-12-24T03:30:47.188Z,9.64
2022-12-24T03:31:47.238Z,9.69
2022-12-24T03:32:47.134Z,9.66
2022-12-24T03:33:47.169Z,9.56
2022-12-24T03:34:47.117Z,9.49
2022-12-24T03:35:47.129Z,9.48
2022-12-24T03:36:47.118Z,9.59
2022-12-24T03:37:47.097Z,9.55
2022-12-24T03:38:47.083Z,9.52
2022-12-24T03:39:47.080Z,9.51
2022-12-24T03:40:47.071Z,9.52
2022-12-24T03:41:47.062Z,9.52
2022-12-24T03:42:47.015Z,9.49
2022-12-24T03:43:47.009Z,9.47
2022-12-24T03:44:47.042Z,9.55
2022-12-24T03:45:47.054Z,9.63
2022-12-24T03:46:46.976Z,9.67
2022-12-24T03:47:47.015Z,9.74
2022-12-24T03:48:46.994Z,9.59
2022-12-24T03:49:46.954Z,9.72
2022-12-24T03:50:46.979Z,9.77
2022-12-24T03:51:46.929Z,9.70
2022-12-24T03:52:46.961Z,9.69
2022-12-24T03:53:46.914Z,9.69
2022-12-24T03:54:46.981Z,9.62
2022-12-24T03:55:46.927Z,9.51
2022-12-24T03:56:46.893Z,9.55
2022-12-24T03:57:46.881Z,9.47
2022-12-24T03:58:46.907Z,9.51
2022-12-24T03:59:46.932Z,9.52
2022-12-24T04:00:46.904Z,9.51
2022-12-24T04:01:47.065Z,9.49
2022-12-24T04:02:46.930Z,9.48
2022-12-24T04:03:46.824Z,9.45
2022-12-24T04:04:46.811Z,9.39
2022-12-24T04:05:46.808Z,9.56
2022-12-24T04:06:46.774Z,9.51
2022-12-24T04:07:46.747Z,9.51
2022-12-24T04:08:46.750Z,9.33
2022-12-24T04:09:46.744Z,9.39
2022-12-24T04:10:46.750Z,9.31
2022-12-24T04:11:46.724Z,9.31
2022-12-24T04:12:46.678Z,9.34
2022-12-24T04:13:46.675Z,9.31
2022-12-24T04:14:46.670Z,9.31
2022-12-24T04:15:46.678Z,9.27
2022-12-24T04:16:46.767Z,9.26
2022-12-24T04:17:46.664Z,9.26
2022-12-24T04:18:46.613Z,9.12
2022-12-24T04:19:46.612Z,9.24
2022-12-24T04:20:46.628Z,9.18
2022-12-24T04:21:46.595Z,9.13
2022-12-24T04:22:46.593Z,9.03
2022-12-24T04:23:46.594Z,9.15
2022-12-24T04:24:46.560Z,9.12
2022-12-24T04:25:46.547Z,8.96
2022-12-24T04:26:46.564Z,8.96
2022-12-24T04:27:46.526Z,9.05
2022-12-24T04:28:46.520Z,8.89
2022-12-24T04:29:46.516Z,8.96
2022-12-24T04:30:46.477Z,8.82
2022-12-24T04:31:46.488Z,8.82
2022-12-24T04:32:46.507Z,8.77
2022-12-24T04:33:46.457Z,8.71
2022-12-24T04:34:46.449Z,8.59
2022-12-24T04:35:46.440Z,8.49
2022-12-24T04:36:46.435Z,8.54
2022-12-24T04:37:46.417Z,8.56
2022-12-24T04:38:46.447Z,8.44
2022-12-24T04:39:46.407Z,8.57
2022-12-24T04:40:46.366Z,8.54
2022-12-24T04:41:46.375Z,8.44
2022-12-24T04:42:46.390Z,8.35
2022-12-24T04:43:46.363Z,8.32
2022-12-24T04:44:46.330Z,8.38
2022-12-24T04:45:46.344Z,8.34
2022-12-24T04:46:46.339Z,8.20
2022-12-24T04:47:46.319Z,8.35
2022-12-24T04:48:46.296Z,8.16
2022-12-24T04:49:46.305Z,8.26
2022-12-24T04:50:46.298Z,8.16
2022-12-24T04:51:46.262Z,8.09
2022-12-24T04:52:46.254Z,8.08
2022-12-24T04:53:46.265Z,8.14
2022-12-24T04:54:46.233Z,8.02
2022-12-24T04:55:46.223Z,8.09
2022-12-24T04:56:46.231Z,8.01
2022-12-24T04:57:51.177Z,8.05
2022-12-24T04:58:48.180Z,8.08
2022-12-24T04:59:46.203Z,8.14
2022-12-24T05:00:46.192Z,8.21
2022-12-24T05:01:46.184Z,8.24
2022-12-24T05:02:46.214Z,8.26
2022-12-24T05:03:46.140Z,8.20
2022-12-24T05:04:46.125Z,8.28
2022-12-24T05:05:46.113Z,8.27
2022-12-24T05:06:46.126Z,8.38
2022-12-24T05:07:46.093Z,8.34
2022-12-24T05:08:46.079Z,8.45
2022-12-24T05:09:46.115Z,8.42
2022-12-24T05:10:46.039Z,8.38
2022-12-24T05:11:46.076Z,8.52
2022-12-24T05:12:46.054Z,8.59
2022-12-24T05:13:47.500Z,8.52
2022-12-24T05:14:47.033Z,8.60
2022-12-24T05:15:45.992Z,8.56
2022-12-24T05:16:47.153Z,8.54
2022-12-24T05:17:46.006Z,8.57
2022-12-24T05:18:45.959Z,8.61
2022-12-24T05:19:45.975Z,8.60
2022-12-24T05:20:45.985Z,8.49
2022-12-24T05:21:45.942Z,8.60
2022-12-24T05:22:45.917Z,8.49
2022-12-24T05:23:45.948Z,8.61
2022-12-24T05:24:45.924Z,8.46
2022-12-24T05:25:45.885Z,8.46
2022-12-24T05:26:45.930Z,8.53
2022-12-24T05:27:50.883Z,8.53
2022-12-24T05:28:47.878Z,8.53
2022-12-24T05:29:45.873Z,8.74
2022-12-24T05:30:45.889Z,8.45
2022-12-24T05:31:45.830Z,8.46
2022-12-24T05:32:45.818Z,8.59
2022-12-24T05:33:45.829Z,8.49
2022-12-24T05:34:45.778Z,8.49
2022-12-24T05:35:45.929Z,8.45
2022-12-24T05:36:45.828Z,8.59
2022-12-24T05:37:45.770Z,8.45
2022-12-24T05:38:45.745Z,8.53
2022-12-24T05:39:45.742Z,8.50
2022-12-24T05:40:45.759Z,8.42
2022-12-24T05:41:45.744Z,8.50
2022-12-24T05:42:45.729Z,8.56
2022-12-24T05:43:45.729Z,8.49
2022-12-24T05:44:45.684Z,8.50
2022-12-24T05:45:45.715Z,8.50
2022-12-24T05:46:45.819Z,8.45
2022-12-24T05:47:45.684Z,8.49
2022-12-24T05:48:45.644Z,8.45
2022-12-24T05:49:45.629Z,8.49
2022-12-24T05:50:45.647Z,8.45
2022-12-24T05:51:45.630Z,8.45
2022-12-24T05:52:45.576Z,8.53
2022-12-24T05:53:45.614Z,8.44
2022-12-24T05:54:45.589Z,8.52
2022-12-24T05:55:45.568Z,8.46
2022-12-24T05:56:45.545Z,8.49
2022-12-24T05:57:45.569Z,8.41
2022-12-24T05:58:45.532Z,8.42
2022-12-24T05:59:45.536Z,8.42
2022-12-24T06:00:45.527Z,8.38
2022-12-24T06:01:45.745Z,8.42
2022-12-24T06:02:45.564Z,8.39
2022-12-24T06:03:45.488Z,8.34
2022-12-24T06:04:45.499Z,8.36
2022-12-24T06:05:45.444Z,8.34
2022-12-24T06:06:45.456Z,8.31
2022-12-24T06:07:45.426Z,8.34
2022-12-24T06:08:45.439Z,8.31
2022-12-24T06:09:45.408Z,8.32
2022-12-24T06:10:45.424Z,8.31
2022-12-24T06:11:45.402Z,8.38
2022-12-24T06:12:45.352Z,8.32
2022-12-24T06:13:45.379Z,8.36
2022-12-24T06:14:45.343Z,8.28
2022-12-24T06:15:45.355Z,8.35
2022-12-24T06:16:45.361Z,8.31
2022-12-24T06:17:45.331Z,8.31
2022-12-24T06:18:45.296Z,8.26
2022-12-24T06:19:45.304Z,8.26
2022-12-24T06:20:45.340Z,8.31
2022-12-24T06:21:45.310Z,8.28
2022-12-24T06:22:45.269Z,8.26
2022-12-24T06:23:45.254Z,8.23
2022-12-24T06:24:45.266Z,8.27
2022-12-24T06:25:45.235Z,8.26
2022-12-24T06:26:45.204Z,8.21
2022-12-24T06:27:45.204Z,8.28
2022-12-24T06:28:45.264Z,8.21
2022-12-24T06:29:45.191Z,8.17
2022-12-24T06:30:45.266Z,8.23
2022-12-24T06:31:45.314Z,8.16
2022-12-24T06:32:45.140Z,8.16
2022-12-24T06:33:45.126Z,8.18
2022-12-24T06:34:46.144Z,8.18
2022-12-24T06:35:45.135Z,8.13
2022-12-24T06:36:45.087Z,8.20
2022-12-24T06:37:45.117Z,8.17
2022-12-24T06:38:45.063Z,8.18
2022-12-24T06:39:45.079Z,8.26
2022-12-24T06:40:45.082Z,8.16
2022-12-24T06:41:45.065Z,8.20
2022-12-24T06:42:45.025Z,8.18
2022-12-24T06:43:45.032Z,8.23
2022-12-24T06:44:45.030Z,8.20
2022-12-24T06:45:45.002Z,8.13
2022-12-24T06:46:45.119Z,8.14
2022-12-24T06:47:44.995Z,8.13
2022-12-24T06:48:44.984Z,8.08
2022-12-24T06:49:44.975Z,8.06
2022-12-24T06:50:44.995Z,7.99
2022-12-24T06:51:44.955Z,8.01
2022-12-24T06:52:44.923Z,8.05
2022-12-24T06:53:44.928Z,7.96
2022-12-24T06:54:44.923Z,7.96
2022-12-24T06:55:44.900Z,8.01
2022-12-24T06:56:44.871Z,8.02
2022-12-24T06:57:44.872Z,8.02
2022-12-24T06:58:44.894Z,8.02
2022-12-24T06:59:44.855Z,8.05
2022-12-24T07:00:44.856Z,7.99
2022-12-24T07:01:44.974Z,8.01
2022-12-24T07:02:44.871Z,8.06
2022-12-24T07:03:44.934Z,8.06
2022-12-24T07:04:44.818Z,8.08
2022-12-24T07:05:44.791Z,8.06
2022-12-24T07:06:44.781Z,8.06
2022-12-24T07:07:44.763Z,8.05
2022-12-24T07:08:44.790Z,8.08
2022-12-24T07:09:44.755Z,8.14
2022-12-24T07:10:50.553Z,8.14
2022-12-24T07:11:46.740Z,8.14
2022-12-24T07:12:44.726Z,8.09
2022-12-24T07:13:44.724Z,8.17
2022-12-24T07:14:44.725Z,8.14
2022-12-24T07:15:44.744Z,8.08
2022-12-24T07:16:44.810Z,8.18
2022-12-24T07:17:44.748Z,8.09
2022-12-24T07:18:44.638Z,8.14
2022-12-24T07:19:44.657Z,8.14
2022-12-24T07:20:44.664Z,8.13
2022-12-24T07:21:44.626Z,8.13
2022-12-24T07:22:44.600Z,8.20
2022-12-24T07:23:44.614Z,8.17
2022-12-24T07:24:44.618Z,8.18
2022-12-24T07:25:44.595Z,8.20
2022-12-24T07:26:44.546Z,8.20
2022-12-24T07:27:44.558Z,8.20
2022-12-24T07:28:44.579Z,8.23
2022-12-24T07:29:44.539Z,8.28
2022-12-24T07:30:44.522Z,8.35
2022-12-24T07:31:44.656Z,8.24
2022-12-24T07:32:44.518Z,8.38
2022-12-24T07:33:44.490Z,8.28
2022-12-24T07:34:44.510Z,8.35
2022-12-24T07:35:44.481Z,8.24
2022-12-24T07:36:44.456Z,8.28
2022-12-24T07:37:44.459Z,8.27
2022-12-24T07:38:44.469Z,8.31
2022-12-24T07:39:44.441Z,8.34
2022-12-24T07:40:44.404Z,8.32
2022-12-24T07:41:44.436Z,8.28
2022-12-24T07:42:44.385Z,8.18
2022-12-24T07:43:44.383Z,8.13
2022-12-24T07:44:44.399Z,8.23
2022-12-24T07:45:44.367Z,8.20
2022-12-24T07:46:44.458Z,8.24
2022-12-24T07:47:44.365Z,8.21
2022-12-24T07:48:44.349Z,8.16
2022-12-24T07:49:44.325Z,8.21
2022-12-24T07:50:44.332Z,8.18
2022-12-24T07:51:44.333Z,8.26
2022-12-24T07:52:44.265Z,8.18
2022-12-24T07:53:44.271Z,8.20
2022-12-24T07:54:44.295Z,8.20
2022-12-24T07:55:44.265Z,8.23
2022-12-24T07:56:44.233Z,8.24
2022-12-24T07:57:44.232Z,8.16
2022-12-24T07:58:44.236Z,8.17
2022-12-24T07:59:44.215Z,8.16
2022-12-24T08:00:44.197Z,8.14
2022-12-24T08:01:44.365Z,8.21
2022-12-24T08:02:44.504Z,8.16
2022-12-24T08:03:44.368Z,8.20
2022-12-24T08:04:44.128Z,8.21
2022-12-24T08:05:45.172Z,8.24
2022-12-24T08:06:44.137Z,8.21
2022-12-24T08:07:44.122Z,8.20
2022-12-24T08:08:44.121Z,8.26
2022-12-24T08:09:44.121Z,8.28
2022-12-24T08:10:44.073Z,8.23
2022-12-24T08:11:51.354Z,8.27
2022-12-24T08:12:46.082Z,8.28
2022-12-24T08:13:44.048Z,8.20
2022-12-24T08:14:44.068Z,8.28
2022-12-24T08:15:44.045Z,8.31
2022-12-24T08:16:44.118Z,8.24
2022-12-24T08:17:44.002Z,8.39
2022-12-24T08:18:44.051Z,8.36
2022-12-24T08:19:43.995Z,8.32
2022-12-24T08:20:43.966Z,8.34
2022-12-24T08:21:44.007Z,8.35
2022-12-24T08:22:43.940Z,8.24
2022-12-24T08:23:43.960Z,8.32
2022-12-24T08:24:43.988Z,8.41
2022-12-24T08:25:43.939Z,8.38
2022-12-24T08:26:43.899Z,8.34
2022-12-24T08:27:43.922Z,8.46
2022-12-24T08:28:43.914Z,8.36
2022-12-24T08:29:43.881Z,8.46
2022-12-24T08:30:43.901Z,8.50
2022-12-24T08:31:43.909Z,8.42
2022-12-24T08:32:43.839Z,8.57
2022-12-24T08:33:43.875Z,8.57
2022-12-24T08:34:43.841Z,8.60
2022-12-24T08:35:43.824Z,8.52
2022-12-24T08:36:43.801Z,8.57
2022-12-24T08:37:43.813Z,8.63
2022-12-24T08:38:43.796Z,8.63
2022-12-24T08:39:43.847Z,8.77
2022-12-24T08:40:43.776Z,8.82
2022-12-24T08:41:43.752Z,8.71
2022-12-24T08:42:43.807Z,8.81
2022-12-24T08:43:43.725Z,8.78
2022-12-24T08:44:43.745Z,8.75
2022-12-24T08:45:43.759Z,8.86
2022-12-24T08:46:43.819Z,8.81
2022-12-24T08:47:43.684Z,8.84
2022-12-24T08:48:43.670Z,8.79
2022-12-24T08:49:43.665Z,8.84
2022-12-24T08:50:43.659Z,8.86
2022-12-24T08:51:43.668Z,8.86
2022-12-24T08:52:43.621Z,8.92
2022-12-24T08:53:43.669Z,8.87
2022-12-24T08:54:43.596Z,8.93
2022-12-24T08:55:43.595Z,8.81
2022-12-24T08:56:43.617Z,8.82
2022-12-24T08:57:43.603Z,8.93
2022-12-24T08:58:43.561Z,8.89
2022-12-24T08:59:43.555Z,8.87
2022-12-24T09:00:43.611Z,8.90
2022-12-24T09:01:43.778Z,8.74
2022-12-24T09:02:43.617Z,8.82
2022-12-24T09:03:43.673Z,8.86
2022-12-24T09:04:43.528Z,8.78
2022-12-24T09:05:43.488Z,8.86
2022-12-24T09:06:43.491Z,8.84
2022-12-24T09:07:43.455Z,8.79
2022-12-24T09:08:43.475Z,8.81
2022-12-24T09:09:43.455Z,8.87
2022-12-24T09:10:43.473Z,8.90
2022-12-24T09:11:43.442Z,8.86
2022-12-24T09:12:43.418Z,8.97
2022-12-24T09:13:43.394Z,8.82
2022-12-24T09:14:43.403Z,8.92
2022-12-24T09:15:43.402Z,8.97
2022-12-24T09:16:43.415Z,8.95
2022-12-24T09:17:43.402Z,9.02
2022-12-24T09:18:43.354Z,9.11
2022-12-24T09:19:43.334Z,9.02
2022-12-24T09:20:46.832Z,9.09
2022-12-24T09:21:44.335Z,9.09
2022-12-24T09:22:43.307Z,9.03
2022-12-24T09:23:43.294Z,9.03
2022-12-24T09:24:43.314Z,8.96
2022-12-24T09:25:43.245Z,9.09
2022-12-24T09:26:43.294Z,9.02
2022-12-24T09:27:43.266Z,8.97
2022-12-24T09:28:43.219Z,9.03
2022-12-24T09:29:43.222Z,9.03
2022-12-24T09:30:43.234Z,8.97
2022-12-24T09:31:43.259Z,9.02
2022-12-24T09:32:43.185Z,9.21
2022-12-24T09:33:43.219Z,9.13
2022-12-24T09:34:43.187Z,9.16
2022-12-24T09:35:43.169Z,9.16
2022-12-24T09:36:43.147Z,9.24
2022-12-24T09:37:43.147Z,9.21
2022-12-24T09:38:43.136Z,9.26
2022-12-24T09:39:44.162Z,9.36
2022-12-24T09:40:43.094Z,9.31
2022-12-24T09:41:43.117Z,9.33
2022-12-24T09:42:43.088Z,9.29
2022-12-24T09:43:43.073Z,9.37
2022-12-24T09:44:43.081Z,9.37
2022-12-24T09:45:43.095Z,9.45
2022-12-24T09:46:43.035Z,9.34
2022-12-24T09:47:43.027Z,9.30
2022-12-24T09:48:43.047Z,9.33
2022-12-24T09:49:42.995Z,9.34
2022-12-24T09:50:43.024Z,9.39
2022-12-24T09:51:43.000Z,9.47
2022-12-24T09:52:42.966Z,9.34
2022-12-24T09:53:42.960Z,9.45
2022-12-24T09:54:47.776Z,9.30
2022-12-24T09:55:43.945Z,9.47
2022-12-24T09:56:42.922Z,9.44
2022-12-24T09:57:42.936Z,9.48
2022-12-24T09:58:42.882Z,9.36
2022-12-24T09:59:42.890Z,9.42
2022-12-24T10:00:49.582Z,9.37
2022-12-24T10:01:45.035Z,9.52
2022-12-24T10:02:43.086Z,9.37
2022-12-24T10:03:42.903Z,9.37
2022-12-24T10:04:42.856Z,9.47
2022-12-24T10:05:42.832Z,9.59
2022-12-24T10:06:42.807Z,9.66
2022-12-24T10:07:42.821Z,9.67
2022-12-24T10:08:42.812Z,9.69
2022-12-24T10:09:42.778Z,9.74
2022-12-24T10:10:42.748Z,9.76
2022-12-24T10:11:44.347Z,9.72
2022-12-24T10:12:49.392Z,9.67
2022-12-24T10:13:44.719Z,9.58
2022-12-24T10:14:42.745Z,9.63
2022-12-24T10:15:42.740Z,9.63
2022-12-24T10:16:42.747Z,9.64
2022-12-24T10:17:42.705Z,9.67
2022-12-24T10:18:48.830Z,9.64
2022-12-24T10:19:44.675Z,9.70
2022-12-24T10:20:42.652Z,9.69
2022-12-24T10:21:42.673Z,9.76
2022-12-24T10:22:42.638Z,9.77
2022-12-24T10:23:42.631Z,9.73
2022-12-24T10:24:49.886Z,9.80
2022-12-24T10:25:44.628Z,9.76
2022-12-24T10:26:42.580Z,9.82
2022-12-24T10:27:42.581Z,9.69
2022-12-24T10:28:42.585Z,9.81
2022-12-24T10:29:42.561Z,9.70
2022-12-24T10:30:42.648Z,9.55
2022-12-24T10:31:42.570Z,9.69
2022-12-24T10:32:42.520Z,9.72
2022-12-24T10:33:42.535Z,9.76
2022-12-24T10:34:42.549Z,9.87
2022-12-24T10:35:42.540Z,9.97
2022-12-24T10:36:42.490Z,9.85
2022-12-24T10:37:42.480Z,9.81
2022-12-24T10:38:42.474Z,9.85
2022-12-24T10:39:42.453Z,9.82
2022-12-24T10:40:42.417Z,9.85
2022-12-24T10:41:42.416Z,9.87
2022-12-24T10:42:50.140Z,9.84
2022-12-24T10:43:44.422Z,9.73
2022-12-24T10:44:42.384Z,9.85
2022-12-24T10:45:42.450Z,9.72
2022-12-24T10:46:42.433Z,9.85
2022-12-24T10:47:42.370Z,9.85
2022-12-24T10:48:48.324Z,9.85
2022-12-24T10:49:44.358Z,9.94
2022-12-24T10:50:42.316Z,10.06
2022-12-24T10:51:42.325Z,9.94
2022-12-24T10:52:42.338Z,10.06
2022-12-24T10:53:42.279Z,10.05
2022-12-24T10:54:42.296Z,10.05
2022-12-24T10:55:42.291Z,10.06
2022-12-24T10:56:42.247Z,10.12
2022-12-24T10:57:42.250Z,10.18
2022-12-24T10:58:42.253Z,10.36
2022-12-24T10:59:42.216Z,10.41
2022-12-24T11:00:42.204Z,10.58
2022-12-24T11:01:42.371Z,10.65
2022-12-24T11:02:42.339Z,10.67
2022-12-24T11:03:42.201Z,10.68
2022-12-24T11:04:42.168Z,10.67
2022-12-24T11:05:42.168Z,10.67
2022-12-24T11:06:47.590Z,10.69
2022-12-24T11:07:44.141Z,10.72
2022-12-24T11:08:42.143Z,10.65
2022-12-24T11:09:42.120Z,10.61
2022-12-24T11:10:42.085Z,10.58
2022-12-24T11:11:42.083Z,10.61
2022-12-24T11:12:42.106Z,10.72
2022-12-24T11:13:42.057Z,10.69
2022-12-24T11:14:42.039Z,10.71
2022-12-24T11:15:42.096Z,10.71
2022-12-24T11:16:42.037Z,10.79
2022-12-24T11:17:42.029Z,10.79
2022-12-24T11:18:46.791Z,10.86
2022-12-24T11:19:44.003Z,10.82
2022-12-24T11:20:41.976Z,10.94
2022-12-24T11:21:41.974Z,10.90
2022-12-24T11:22:41.989Z,10.98
2022-12-24T11:23:41.979Z,11.05
2022-12-24T11:24:48.133Z,11.00
2022-12-24T11:25:43.939Z,11.07
2022-12-24T11:26:41.921Z,10.94
2022-12-24T11:27:41.929Z,11.00
2022-12-24T11:28:41.909Z,11.00
2022-12-24T11:29:41.897Z,11.04
2022-12-24T11:30:41.917Z,10.98
2022-12-24T11:31:41.877Z,11.08
2022-12-24T11:32:41.870Z,11.00
2022-12-24T11:33:41.822Z,11.01
2022-12-24T11:34:41.840Z,10.95
2022-12-24T11:35:41.807Z,10.92
2022-12-24T11:36:41.805Z,10.90
2022-12-24T11:37:41.816Z,10.86
2022-12-24T11:38:41.799Z,10.75
2022-12-24T11:39:41.777Z,10.71
2022-12-24T11:40:41.743Z,10.80
2022-12-24T11:41:41.757Z,10.77
2022-12-24T11:42:41.783Z,10.72
2022-12-24T11:43:41.741Z,10.77
2022-12-24T11:44:41.693Z,10.71
2022-12-24T11:45:41.704Z,10.64
2022-12-24T11:46:41.849Z,10.59
2022-12-24T11:47:41.698Z,10.64
2022-12-24T11:48:41.659Z,10.58
2022-12-24T11:49:41.677Z,10.49
2022-12-24T11:50:41.625Z,10.55
2022-12-24T11:51:41.628Z,10.42
2022-12-24T11:52:42.661Z,10.27
2022-12-24T11:53:41.632Z,10.38
2022-12-24T11:54:41.589Z,10.28
2022-12-24T11:55:41.600Z,10.27
2022-12-24T11:56:41.619Z,10.12
2022-12-24T11:57:41.542Z,10.20
2022-12-24T11:58:41.565Z,10.23
2022-12-24T11:59:41.540Z,10.17
2022-12-24T12:00:41.501Z,10.07
2022-12-24T12:01:41.609Z,9.99
2022-12-24T12:02:41.599Z,10.05
2022-12-24T12:03:42.529Z,10.06
2022-12-24T12:04:41.499Z,10.12
2022-12-24T12:05:41.483Z,10.10
2022-12-24T12:06:41.446Z,10.07
2022-12-24T12:07:41.454Z,10.17
2022-12-24T12:08:41.442Z,10.10
2022-12-24T12:09:42.439Z,9.97
2022-12-24T12:10:41.398Z,9.95
2022-12-24T12:11:41.405Z,9.94
2022-12-24T12:12:41.421Z,9.94
2022-12-24T12:13:41.409Z,9.87
2022-12-24T12:14:41.343Z,9.74
2022-12-24T12:15:41.437Z,9.77
2022-12-24T12:16:41.403Z,9.76
2022-12-24T12:17:41.333Z,9.69
2022-12-24T12:18:41.323Z,9.77
2022-12-24T12:19:41.327Z,9.69
2022-12-24T12:20:41.324Z,9.74
2022-12-24T12:21:41.296Z,9.87
2022-12-24T12:22:41.303Z,9.88
2022-12-24T12:23:41.268Z,9.87
2022-12-24T12:24:41.241Z,10.05
2022-12-24T12:25:41.259Z,9.97
2022-12-24T12:26:41.244Z,10.06
2022-12-24T12:27:41.247Z,10.13
2022-12-24T12:28:41.216Z,10.20
2022-12-24T12:29:41.217Z,10.30
2022-12-24T12:30:41.192Z,10.15
2022-12-24T12:31:41.204Z,10.23
2022-12-24T12:32:41.222Z,10.20
2022-12-24T12:33:41.162Z,10.30
2022-12-24T12:34:41.161Z,10.46
2022-12-24T12:35:41.120Z,10.53
2022-12-24T12:36:41.133Z,10.58
2022-12-24T12:37:41.109Z,10.80
2022-12-24T12:38:41.127Z,10.90
2022-12-24T12:39:41.115Z,11.20
2022-12-24T12:40:41.111Z,11.27
2022-12-24T12:41:41.073Z,11.23
2022-12-24T12:42:41.081Z,11.16
2022-12-24T12:43:41.061Z,11.12
2022-12-24T12:44:41.009Z,11.07
2022-12-24T12:45:41.025Z,10.97
2022-12-24T12:46:41.061Z,10.90
2022-12-24T12:47:41.020Z,10.89
2022-12-24T12:48:41.003Z,10.94
2022-12-24T12:49:40.981Z,10.86
2022-12-24T12:50:40.962Z,10.92
2022-12-24T12:51:40.943Z,10.80
2022-12-24T12:52:40.955Z,10.80
2022-12-24T12:53:40.916Z,10.83
2022-12-24T12:54:40.929Z,10.90
2022-12-24T12:55:40.936Z,10.94
2022-12-24T12:56:42.038Z,10.98
2022-12-24T12:57:40.906Z,11.04
2022-12-24T12:58:40.895Z,11.07
2022-12-24T12:59:40.858Z,11.23
2022-12-24T13:00:41.909Z,11.08
2022-12-24T13:01:41.116Z,10.97
2022-12-24T13:02:41.038Z,10.90
2022-12-24T13:03:40.807Z,11.05
2022-12-24T13:04:40.838Z,11.15
2022-12-24T13:05:40.793Z,11.20
2022-12-24T13:06:40.755Z,11.30
2022-12-24T13:07:40.765Z,11.30
2022-12-24T13:08:40.800Z,11.49
2022-12-24T13:09:40.733Z,11.49